Main page
METAR-TAF:

METAR-TAF

Airports :

Hastings Municipal Airport

Hastings, Nebraska, United States

latitude: 40-36-02N, longitude: 098-25-33W, elevation: 1952 ft

Current weather observation

The report was made 55 minutes ago, at 14:53 UTC
Wind 12 mph from the South/Southeast
Temperature 70°F
Humidity 88%
Pressure 30.26 in. Hg
Visibility: 10 miles
Overcast at a height of 500 ft

METAR: KHSI 201453Z AUTO 15010KT 10SM OVC005 21/19 A3026 RMK AO2 SLP236 T02060194 53004

Time: 10:48 (15:48 UTC)


TAF: missing

Weather observations and forecasts of more than 4000 airports (METAR and TAF reports).

The available stations are represented by yellow and red dots on the map.

Hover mouse over dot to see the name of the station.

Then click to see weather observations and forecasts.

To change the map : click on the green buttons with a black cross to zoom in, on the green button with a dash to zoom out, or on the green arrows for adjacent maps.


METAR-TAF: